الصفحة الرئيسية
METAR-TAF:

METAR-TAF

مطار :

مطار البرمة

El Borma, تونس

دائرة عرض: 31-41N, خط طول: 009-10E, ارتفاع: 258 متر

مراقبة الطقس الحالي

تاريخ ووقت الإصدار 4ساعات و 36 دقيقة قبل الساعة 12:00UTC
ريح 11 عقدة من الجنوب, الاتجاه يتراوح بين الجنوب/الجنوب الشرقي و الجنوب الغربي
درجة الحرارة 28°درجة مئوية
الرطوبة 9%
ضغط 1014 hPa
الرؤية 10 كم أو أكثر
الغيوم لا تقل 1500 م ولا وجود لمزنة ركامية السحاب الأسود

METAR: DTTR 011200Z 18011KT 150V220 CAVOK 28/M08 Q1014 NOSIG

زمن: 17:36 (16:36 UTC)

توقعات

تاريخ ووقت الإصدار 1ساعة و 36 دقيقة قبل الساعة 15:00UTC
التوقعات صالحة من01 الساعة 16 UTC إلى 02 الساعة 01 UTC
ريح 11 عقدة من الجنوب
الرؤية 10 كم أو أكثر
الغيوم لا تقل 1500 م ولا وجود لمزنة ركامية السحاب الأسود

TAF: DTTR 011500Z 0116/0201 18011KT CAVOK

أرصاد الطقس والتوقعات من أكثر من 4000 مطار (تقارير الطقس للمطار METAR والتنبؤ بالطقس بالمطارTAF).

المحطات المتاحة هي النقط الصفراء والحمراء على الخريطة.

حرك المؤشر فوق النقطة لمعرفة اسم المحطة.

ثم انقر لمعرفة أرصاد وتوقعات الطقس.

لتغيير الخارطة: اضغط على الأزرار الخضراء مع رمز الصليب الأسود للتكبير. على الزر الأخضر مع شرطة للتصغير، أو على الأسهم الخضراء للخرائط المجاورة.


METAR-TAF: